sensor_id;sensor_type;location;lat;lon;timestamp;pressure;altitude;pressure_sealevel;temperature;humidity
15050;BME280;7622;42.724;23.250;2023-02-02T00:01:37;94750.16;;;4.56;98.82
15050;BME280;7622;42.724;23.250;2023-02-02T00:04:04;94743.44;;;4.66;96.73
15050;BME280;7622;42.724;23.250;2023-02-02T00:06:32;94734.41;;;4.60;94.32
15050;BME280;7622;42.724;23.250;2023-02-02T00:09:00;94741.91;;;4.63;95.16
15050;BME280;7622;42.724;23.250;2023-02-02T00:11:27;94747.25;;;4.60;95.14
15050;BME280;7622;42.724;23.250;2023-02-02T00:13:55;94743.34;;;4.67;93.21
15050;BME280;7622;42.724;23.250;2023-02-02T00:16:37;94741.91;;;4.63;92.76
15050;BME280;7622;42.724;23.250;2023-02-02T00:19:06;94748.41;;;4.44;96.80
15050;BME280;7622;42.724;23.250;2023-02-02T00:21:34;94751.59;;;4.47;97.07
15050;BME280;7622;42.724;23.250;2023-02-02T00:24:02;94756.13;;;4.44;98.93
15050;BME280;7622;42.724;23.250;2023-02-02T00:26:29;94751.72;;;4.46;100.00
15050;BME280;7622;42.724;23.250;2023-02-02T00:28:57;94753.56;;;4.44;100.00
15050;BME280;7622;42.724;23.250;2023-02-02T00:31:24;94756.78;;;4.34;100.00
15050;BME280;7622;42.724;23.250;2023-02-02T00:33:51;94754.19;;;4.34;100.00
15050;BME280;7622;42.724;23.250;2023-02-02T00:36:18;94759.53;;;4.06;100.00
15050;BME280;7622;42.724;23.250;2023-02-02T00:38:46;94751.19;;;4.15;100.00
15050;BME280;7622;42.724;23.250;2023-02-02T00:41:13;94746.97;;;4.02;100.00
15050;BME280;7622;42.724;23.250;2023-02-02T00:43:39;94750.81;;;4.21;100.00
15050;BME280;7622;42.724;23.250;2023-02-02T00:46:12;94751.72;;;4.20;100.00
15050;BME280;7622;42.724;23.250;2023-02-02T00:48:38;94764.03;;;4.15;100.00
15050;BME280;7622;42.724;23.250;2023-02-02T00:51:05;94760.13;;;4.22;100.00
15050;BME280;7622;42.724;23.250;2023-02-02T00:53:32;94728.47;;;4.09;100.00
15050;BME280;7622;42.724;23.250;2023-02-02T00:55:59;94753.47;;;4.20;100.00
15050;BME280;7622;42.724;23.250;2023-02-02T00:58:26;94750.81;;;4.21;100.00
15050;BME280;7622;42.724;23.250;2023-02-02T01:00:52;94727.25;;;4.02;100.00
15050;BME280;7622;42.724;23.250;2023-02-02T01:03:21;94742.88;;;4.24;100.00
15050;BME280;7622;42.724;23.250;2023-02-02T01:05:47;94729.09;;;4.25;100.00
15050;BME280;7622;42.724;23.250;2023-02-02T01:08:16;94734.03;;;4.28;100.00
15050;BME280;7622;42.724;23.250;2023-02-02T01:10:43;94725.38;;;4.29;100.00
15050;BME280;7622;42.724;23.250;2023-02-02T01:13:09;94713.38;;;4.17;100.00
15050;BME280;7622;42.724;23.250;2023-02-02T01:15:36;94719.00;;;4.22;100.00
15050;BME280;7622;42.724;23.250;2023-02-02T01:18:03;94711.53;;;4.19;100.00
15050;BME280;7622;42.724;23.250;2023-02-02T01:20:31;94720.25;;;4.29;100.00
15050;BME280;7622;42.724;23.250;2023-02-02T01:22:58;94728.06;;;4.15;100.00
15050;BME280;7622;42.724;23.250;2023-02-02T01:25:25;94710.81;;;4.17;100.00
15050;BME280;7622;42.724;23.250;2023-02-02T01:27:52;94712.13;;;4.10;100.00
15050;BME280;7622;42.724;23.250;2023-02-02T01:30:19;94714.72;;;4.10;100.00
15050;BME280;7622;42.724;23.250;2023-02-02T01:32:45;94723.56;;;4.06;100.00
15050;BME280;7622;42.724;23.250;2023-02-02T01:35:12;94724.81;;;4.01;100.00
15050;BME280;7622;42.724;23.250;2023-02-02T01:37:40;94726.22;;;4.05;100.00
15050;BME280;7622;42.724;23.250;2023-02-02T01:40:08;94722.84;;;3.79;100.00
15050;BME280;7622;42.724;23.250;2023-02-02T01:42:36;94728.66;;;3.68;100.00
15050;BME280;7622;42.724;23.250;2023-02-02T01:45:13;94723.09;;;3.49;100.00
15050;BME280;7622;42.724;23.250;2023-02-02T01:47:45;94715.47;;;3.47;100.00
15050;BME280;7622;42.724;23.250;2023-02-02T01:50:14;94706.94;;;3.47;100.00
15050;BME280;7622;42.724;23.250;2023-02-02T01:52:45;94708.25;;;3.27;100.00
15050;BME280;7622;42.724;23.250;2023-02-02T01:55:15;94707.19;;;3.17;100.00
15050;BME280;7622;42.724;23.250;2023-02-02T01:57:45;94699.59;;;3.15;100.00
15050;BME280;7622;42.724;23.250;2023-02-02T02:00:14;94692.97;;;2.99;100.00
15050;BME280;7622;42.724;23.250;2023-02-02T02:02:44;94697.75;;;2.91;100.00
15050;BME280;7622;42.724;23.250;2023-02-02T02:05:15;94706.38;;;2.90;100.00
15050;BME280;7622;42.724;23.250;2023-02-02T02:07:46;94705.16;;;2.95;100.00
15050;BME280;7622;42.724;23.250;2023-02-02T02:10:16;94706.53;;;3.01;100.00
15050;BME280;7622;42.724;23.250;2023-02-02T02:12:43;94709.91;;;2.74;100.00
15050;BME280;7622;42.724;23.250;2023-02-02T02:15:10;94706.28;;;2.50;100.00
15050;BME280;7622;42.724;23.250;2023-02-02T02:18:03;94700.59;;;2.59;100.00
15050;BME280;7622;42.724;23.250;2023-02-02T02:20:57;94698.03;;;2.59;100.00
15050;BME280;7622;42.724;23.250;2023-02-02T02:24:14;94710.59;;;2.35;100.00
15050;BME280;7622;42.724;23.250;2023-02-02T02:27:49;94711.34;;;2.37;100.00
15050;BME280;7622;42.724;23.250;2023-02-02T02:30:44;94727.75;;;2.35;100.00
15050;BME280;7622;42.724;23.250;2023-02-02T02:33:21;94710.72;;;2.20;100.00
15050;BME280;7622;42.724;23.250;2023-02-02T02:35:56;94709.44;;;2.27;100.00
15050;BME280;7622;42.724;23.250;2023-02-02T02:38:34;94712.25;;;2.22;100.00
15050;BME280;7622;42.724;23.250;2023-02-02T02:41:07;94703.19;;;2.17;100.00
15050;BME280;7622;42.724;23.250;2023-02-02T02:43:39;94715.19;;;2.02;100.00
15050;BME280;7622;42.724;23.250;2023-02-02T02:46:08;94712.25;;;1.94;100.00
15050;BME280;7622;42.724;23.250;2023-02-02T02:48:37;94708.69;;;2.11;100.00
15050;BME280;7622;42.724;23.250;2023-02-02T02:51:05;94710.25;;;1.99;100.00
15050;BME280;7622;42.724;23.250;2023-02-02T02:53:32;94707.88;;;2.10;100.00
15050;BME280;7622;42.724;23.250;2023-02-02T02:56:06;94715.28;;;2.01;100.00
15050;BME280;7622;42.724;23.250;2023-02-02T02:58:42;94704.47;;;1.95;100.00
15050;BME280;7622;42.724;23.250;2023-02-02T03:01:16;94701.00;;;1.96;100.00
15050;BME280;7622;42.724;23.250;2023-02-02T03:03:53;94697.16;;;2.18;100.00
15050;BME280;7622;42.724;23.250;2023-02-02T03:06:28;94701.38;;;2.19;100.00
15050;BME280;7622;42.724;23.250;2023-02-02T03:08:59;94703.75;;;2.22;100.00
15050;BME280;7622;42.724;23.250;2023-02-02T03:11:28;94707.78;;;2.12;100.00
15050;BME280;7622;42.724;23.250;2023-02-02T03:13:55;94665.53;;;1.90;100.00
15050;BME280;7622;42.724;23.250;2023-02-02T03:16:22;94699.91;;;2.01;100.00
15050;BME280;7622;42.724;23.250;2023-02-02T03:18:50;94700.19;;;2.24;100.00
15050;BME280;7622;42.724;23.250;2023-02-02T03:21:17;94698.44;;;2.11;100.00
15050;BME280;7622;42.724;23.250;2023-02-02T03:23:44;94698.53;;;2.23;100.00
15050;BME280;7622;42.724;23.250;2023-02-02T03:26:10;94691.31;;;2.16;100.00
15050;BME280;7622;42.724;23.250;2023-02-02T03:28:37;94656.38;;;2.01;100.00
15050;BME280;7622;42.724;23.250;2023-02-02T03:31:04;94610.41;;;1.71;100.00
15050;BME280;7622;42.724;23.250;2023-02-02T03:33:32;94699.56;;;2.21;100.00
15050;BME280;7622;42.724;23.250;2023-02-02T03:36:02;94694.97;;;2.26;100.00
15050;BME280;7622;42.724;23.250;2023-02-02T03:38:29;94692.59;;;2.23;100.00
15050;BME280;7622;42.724;23.250;2023-02-02T03:40:56;94695.44;;;2.18;100.00
15050;BME280;7622;42.724;23.250;2023-02-02T03:43:23;94697.72;;;2.09;100.00
15050;BME280;7622;42.724;23.250;2023-02-02T03:45:54;94700.38;;;1.93;100.00
15050;BME280;7622;42.724;23.250;2023-02-02T03:48:21;94697.53;;;1.97;100.00
15050;BME280;7622;42.724;23.250;2023-02-02T03:50:48;94700.94;;;1.98;100.00
15050;BME280;7622;42.724;23.250;2023-02-02T03:53:16;94704.28;;;1.70;100.00
15050;BME280;7622;42.724;23.250;2023-02-02T03:55:43;94707.22;;;1.64;100.00
15050;BME280;7622;42.724;23.250;2023-02-02T03:58:10;94702.06;;;1.50;100.00
15050;BME280;7622;42.724;23.250;2023-02-02T04:00:36;94698.94;;;1.45;100.00
15050;BME280;7622;42.724;23.250;2023-02-02T04:03:03;94713.03;;;1.52;100.00
15050;BME280;7622;42.724;23.250;2023-02-02T04:05:30;94695.25;;;1.35;100.00
15050;BME280;7622;42.724;23.250;2023-02-02T04:07:57;94699.91;;;1.28;100.00
15050;BME280;7622;42.724;23.250;2023-02-02T04:10:25;94705.75;;;1.30;100.00
15050;BME280;7622;42.724;23.250;2023-02-02T04:12:51;94707.38;;;1.17;100.00
15050;BME280;7622;42.724;23.250;2023-02-02T04:15:18;94715.13;;;1.15;100.00
15050;BME280;7622;42.724;23.250;2023-02-02T04:17:45;94717.97;;;1.25;100.00
15050;BME280;7622;42.724;23.250;2023-02-02T04:20:12;94725.66;;;1.25;100.00
15050;BME280;7622;42.724;23.250;2023-02-02T04:22:38;94723.34;;;1.21;100.00
15050;BME280;7622;42.724;23.250;2023-02-02T04:25:06;94716.59;;;1.19;100.00
15050;BME280;7622;42.724;23.250;2023-02-02T04:27:34;94710.41;;;1.24;100.00
15050;BME280;7622;42.724;23.250;2023-02-02T04:30:01;94709.25;;;1.13;100.00
15050;BME280;7622;42.724;23.250;2023-02-02T04:32:28;94700.56;;;1.02;100.00
15050;BME280;7622;42.724;23.250;2023-02-02T04:34:54;94699.03;;;1.13;100.00
15050;BME280;7622;42.724;23.250;2023-02-02T04:37:21;94693.50;;;1.21;100.00
15050;BME280;7622;42.724;23.250;2023-02-02T04:39:48;94710.44;;;1.38;100.00
15050;BME280;7622;42.724;23.250;2023-02-02T04:42:15;94710.69;;;1.33;100.00
15050;BME280;7622;42.724;23.250;2023-02-02T04:44:43;94715.66;;;1.36;100.00
15050;BME280;7622;42.724;23.250;2023-02-02T04:47:10;94707.56;;;1.58;100.00
15050;BME280;7622;42.724;23.250;2023-02-02T04:49:37;94713.63;;;1.71;100.00
15050;BME280;7622;42.724;23.250;2023-02-02T04:52:04;94674.81;;;1.49;100.00
15050;BME280;7622;42.724;23.250;2023-02-02T04:54:31;94706.88;;;1.84;100.00
15050;BME280;7622;42.724;23.250;2023-02-02T04:56:58;94722.31;;;1.97;100.00
15050;BME280;7622;42.724;23.250;2023-02-02T04:59:27;94727.38;;;1.98;100.00
15050;BME280;7622;42.724;23.250;2023-02-02T05:01:58;94727.16;;;2.02;100.00
15050;BME280;7622;42.724;23.250;2023-02-02T05:04:25;94734.28;;;1.82;100.00
15050;BME280;7622;42.724;23.250;2023-02-02T05:06:52;94731.63;;;1.40;100.00
15050;BME280;7622;42.724;23.250;2023-02-02T05:09:18;94729.84;;;1.26;100.00
15050;BME280;7622;42.724;23.250;2023-02-02T05:11:45;94733.84;;;1.16;100.00
15050;BME280;7622;42.724;23.250;2023-02-02T05:14:12;94738.97;;;1.00;100.00
15050;BME280;7622;42.724;23.250;2023-02-02T05:16:42;94727.50;;;1.07;100.00
15050;BME280;7622;42.724;23.250;2023-02-02T05:19:11;94724.94;;;1.07;100.00
15050;BME280;7622;42.724;23.250;2023-02-02T05:21:41;94721.50;;;1.08;100.00
15050;BME280;7622;42.724;23.250;2023-02-02T05:24:08;94721.97;;;1.15;100.00
15050;BME280;7622;42.724;23.250;2023-02-02T05:26:35;94721.69;;;1.19;100.00
15050;BME280;7622;42.724;23.250;2023-02-02T05:29:02;94702.03;;;0.90;100.00
15050;BME280;7622;42.724;23.250;2023-02-02T05:31:31;94690.84;;;0.77;100.00
15050;BME280;7622;42.724;23.250;2023-02-02T05:33:58;94732.06;;;1.02;100.00
15050;BME280;7622;42.724;23.250;2023-02-02T05:36:26;94726.59;;;1.08;100.00
15050;BME280;7622;42.724;23.250;2023-02-02T05:38:53;94729.09;;;1.10;100.00
15050;BME280;7622;42.724;23.250;2023-02-02T05:41:20;94735.59;;;1.00;100.00
15050;BME280;7622;42.724;23.250;2023-02-02T05:43:47;94743.69;;;1.08;100.00
15050;BME280;7622;42.724;23.250;2023-02-02T05:46:14;94742.38;;;1.01;100.00
15050;BME280;7622;42.724;23.250;2023-02-02T05:48:40;94731.81;;;0.91;100.00
15050;BME280;7622;42.724;23.250;2023-02-02T05:51:10;94740.84;;;0.83;100.00
15050;BME280;7622;42.724;23.250;2023-02-02T05:53:39;94741.47;;;1.02;100.00
15050;BME280;7622;42.724;23.250;2023-02-02T05:56:06;94743.53;;;0.95;100.00
15050;BME280;7622;42.724;23.250;2023-02-02T05:58:33;94743.34;;;0.98;100.00
15050;BME280;7622;42.724;23.250;2023-02-02T06:00:59;94742.03;;;1.07;100.00
15050;BME280;7622;42.724;23.250;2023-02-02T06:03:26;94739.13;;;0.97;100.00
15050;BME280;7622;42.724;23.250;2023-02-02T06:05:53;94747.25;;;0.90;100.00
15050;BME280;7622;42.724;23.250;2023-02-02T06:08:20;94754.00;;;1.06;100.00
15050;BME280;7622;42.724;23.250;2023-02-02T06:10:48;94750.88;;;0.86;100.00
15050;BME280;7622;42.724;23.250;2023-02-02T06:13:15;94746.94;;;0.80;100.00
15050;BME280;7622;42.724;23.250;2023-02-02T06:15:41;94749.56;;;0.78;100.00
15050;BME280;7622;42.724;23.250;2023-02-02T06:18:08;94749.41;;;0.82;100.00
15050;BME280;7622;42.724;23.250;2023-02-02T06:20:35;94760.28;;;0.85;100.00
15050;BME280;7622;42.724;23.250;2023-02-02T06:23:02;94766.88;;;0.89;100.00
15050;BME280;7622;42.724;23.250;2023-02-02T06:25:29;94769.91;;;1.11;100.00
15050;BME280;7622;42.724;23.250;2023-02-02T06:27:58;94770.31;;;1.04;100.00
15050;BME280;7622;42.724;23.250;2023-02-02T06:30:26;94760.00;;;1.05;100.00
15050;BME280;7622;42.724;23.250;2023-02-02T06:32:53;94768.66;;;1.18;100.00
15050;BME280;7622;42.724;23.250;2023-02-02T06:35:19;94752.81;;;1.12;100.00
15050;BME280;7622;42.724;23.250;2023-02-02T06:37:46;94787.03;;;1.25;100.00
15050;BME280;7622;42.724;23.250;2023-02-02T06:40:13;94785.75;;;1.48;100.00
15050;BME280;7622;42.724;23.250;2023-02-02T06:42:40;94781.94;;;1.55;100.00
15050;BME280;7622;42.724;23.250;2023-02-02T06:45:09;94775.56;;;1.62;100.00
15050;BME280;7622;42.724;23.250;2023-02-02T06:47:36;94783.25;;;1.62;100.00
15050;BME280;7622;42.724;23.250;2023-02-02T06:50:03;94778.16;;;1.76;100.00
15050;BME280;7622;42.724;23.250;2023-02-02T06:52:30;94775.94;;;2.00;100.00
15050;BME280;7622;42.724;23.250;2023-02-02T06:54:57;94772.19;;;2.06;100.00
15050;BME280;7622;42.724;23.250;2023-02-02T06:57:23;94781.88;;;2.15;100.00
15050;BME280;7622;42.724;23.250;2023-02-02T06:59:52;94780.63;;;2.36;100.00
15050;BME280;7622;42.724;23.250;2023-02-02T07:02:23;94783.16;;;2.36;100.00
15050;BME280;7622;42.724;23.250;2023-02-02T07:04:51;94789.25;;;2.35;100.00
15050;BME280;7622;42.724;23.250;2023-02-02T07:07:17;94778.03;;;2.50;100.00
15050;BME280;7622;42.724;23.250;2023-02-02T07:09:44;94780.41;;;2.82;100.00
15050;BME280;7622;42.724;23.250;2023-02-02T07:12:11;94785.13;;;3.02;100.00
15050;BME280;7622;42.724;23.250;2023-02-02T07:14:38;94775.75;;;3.15;100.00
15050;BME280;7622;42.724;23.250;2023-02-02T07:17:04;94769.09;;;3.25;100.00
15050;BME280;7622;42.724;23.250;2023-02-02T07:19:32;94770.44;;;3.45;100.00
15050;BME280;7622;42.724;23.250;2023-02-02T07:21:59;94760.78;;;3.48;100.00
15050;BME280;7622;42.724;23.250;2023-02-02T07:24:26;94785.19;;;3.81;100.00
15050;BME280;7622;42.724;23.250;2023-02-02T07:26:53;94782.56;;;4.08;100.00
15050;BME280;7622;42.724;23.250;2023-02-02T07:29:20;94787.09;;;4.29;100.00
15050;BME280;7622;42.724;23.250;2023-02-02T07:31:46;94782.75;;;4.43;100.00
15050;BME280;7622;42.724;23.250;2023-02-02T07:34:13;94782.22;;;4.75;100.00
15050;BME280;7622;42.724;23.250;2023-02-02T07:36:41;94786.25;;;5.40;100.00
15050;BME280;7622;42.724;23.250;2023-02-02T07:39:08;94771.34;;;5.56;100.00
15050;BME280;7622;42.724;23.250;2023-02-02T07:41:36;94766.19;;;5.56;95.99
15050;BME280;7622;42.724;23.250;2023-02-02T07:44:04;94773.75;;;5.70;94.03
15050;BME280;7622;42.724;23.250;2023-02-02T07:46:31;94762.03;;;5.66;93.68
15050;BME280;7622;42.724;23.250;2023-02-02T07:48:58;94773.31;;;5.76;92.38
15050;BME280;7622;42.724;23.250;2023-02-02T07:51:25;94768.59;;;5.70;91.62
15050;BME280;7622;42.724;23.250;2023-02-02T07:53:54;94766.91;;;5.58;97.30
15050;BME280;7622;42.724;23.250;2023-02-02T07:56:24;94762.63;;;5.93;100.00
15050;BME280;7622;42.724;23.250;2023-02-02T07:58:52;94756.34;;;6.31;100.00
15050;BME280;7622;42.724;23.250;2023-02-02T08:01:19;94759.66;;;6.33;100.00
15050;BME280;7622;42.724;23.250;2023-02-02T08:03:47;94689.75;;;6.58;100.00
15050;BME280;7622;42.724;23.250;2023-02-02T08:06:18;94752.09;;;7.83;93.71
15050;BME280;7622;42.724;23.250;2023-02-02T08:08:45;94749.53;;;8.45;83.03
15050;BME280;7622;42.724;23.250;2023-02-02T08:11:15;94718.41;;;8.56;83.54
15050;BME280;7622;42.724;23.250;2023-02-02T08:13:43;94753.38;;;9.21;73.50
15050;BME280;7622;42.724;23.250;2023-02-02T08:16:10;94741.88;;;9.73;72.24
15050;BME280;7622;42.724;23.250;2023-02-02T08:18:37;94743.72;;;10.10;69.24
15050;BME280;7622;42.724;23.250;2023-02-02T08:21:05;94731.22;;;9.96;69.19
15050;BME280;7622;42.724;23.250;2023-02-02T08:23:34;94741.88;;;9.73;68.66
15050;BME280;7622;42.724;23.250;2023-02-02T08:26:08;94739.41;;;9.53;60.75
15050;BME280;7622;42.724;23.250;2023-02-02T08:28:39;94731.88;;;10.17;57.94
15050;BME280;7622;42.724;23.250;2023-02-02T08:31:08;94736.94;;;11.02;55.95
15050;BME280;7622;42.724;23.250;2023-02-02T08:33:35;94729.69;;;11.05;53.66
15050;BME280;7622;42.724;23.250;2023-02-02T08:36:02;94728.88;;;11.05;53.17
15050;BME280;7622;42.724;23.250;2023-02-02T08:38:29;94729.63;;;12.13;52.41
15050;BME280;7622;42.724;23.250;2023-02-02T08:41:03;94708.09;;;11.86;51.04
15050;BME280;7622;42.724;23.250;2023-02-02T08:43:30;94709.34;;;11.99;50.61
15050;BME280;7622;42.724;23.250;2023-02-02T08:45:58;94710.09;;;11.74;51.49
15050;BME280;7622;42.724;23.250;2023-02-02T08:48:25;94711.84;;;11.56;52.12
15050;BME280;7622;42.724;23.250;2023-02-02T08:50:52;94713.66;;;11.10;52.72
15050;BME280;7622;42.724;23.250;2023-02-02T08:53:20;94707.75;;;11.71;52.73
15050;BME280;7622;42.724;23.250;2023-02-02T08:55:47;94693.94;;;12.06;50.99
15050;BME280;7622;42.724;23.250;2023-02-02T08:58:14;94697.75;;;12.37;50.46
15050;BME280;7622;42.724;23.250;2023-02-02T09:00:41;94705.97;;;12.84;49.70
15050;BME280;7622;42.724;23.250;2023-02-02T09:03:09;94697.19;;;13.19;49.22
15050;BME280;7622;42.724;23.250;2023-02-02T09:05:36;94696.13;;;13.62;47.92
15050;BME280;7622;42.724;23.250;2023-02-02T09:08:03;94697.78;;;14.28;46.45
15050;BME280;7622;42.724;23.250;2023-02-02T09:10:30;94693.84;;;14.32;46.43
15050;BME280;7622;42.724;23.250;2023-02-02T09:13:00;94682.34;;;14.74;45.74
15050;BME280;7622;42.724;23.250;2023-02-02T09:15:27;94691.59;;;14.13;45.95
15050;BME280;7622;42.724;23.250;2023-02-02T09:17:53;94697.31;;;14.08;47.21
15050;BME280;7622;42.724;23.250;2023-02-02T09:20:21;94687.00;;;13.66;47.44
15050;BME280;7622;42.724;23.250;2023-02-02T09:22:48;94691.53;;;13.56;47.76
15050;BME280;7622;42.724;23.250;2023-02-02T09:25:16;94685.22;;;13.91;47.44
15050;BME280;7622;42.724;23.250;2023-02-02T09:27:44;94691.56;;;14.29;46.42
15050;BME280;7622;42.724;23.250;2023-02-02T09:30:11;94690.56;;;14.63;46.03
15050;BME280;7622;42.724;23.250;2023-02-02T09:32:39;94681.44;;;14.18;45.61
15050;BME280;7622;42.724;23.250;2023-02-02T09:35:09;94675.91;;;12.64;48.70
15050;BME280;7622;42.724;23.250;2023-02-02T09:37:39;94682.44;;;13.60;47.49
15050;BME280;7622;42.724;23.250;2023-02-02T09:40:09;94676.25;;;13.94;47.23
15050;BME280;7622;42.724;23.250;2023-02-02T09:42:56;94666.44;;;13.63;47.70
15050;BME280;7622;42.724;23.250;2023-02-02T09:45:31;94678.38;;;13.82;46.88
15050;BME280;7622;42.724;23.250;2023-02-02T09:48:10;94678.03;;;13.77;47.23
15050;BME280;7622;42.724;23.250;2023-02-02T09:50:45;94672.97;;;14.00;46.27
15050;BME280;7622;42.724;23.250;2023-02-02T09:53:20;94681.78;;;14.15;46.13
15050;BME280;7622;42.724;23.250;2023-02-02T09:55:50;94673.59;;;14.58;46.07
15050;BME280;7622;42.724;23.250;2023-02-02T09:58:20;94669.84;;;14.29;46.13
15050;BME280;7622;42.724;23.250;2023-02-02T10:00:58;94648.16;;;14.20;45.72
15050;BME280;7622;42.724;23.250;2023-02-02T10:03:29;94655.31;;;14.50;45.93
15050;BME280;7622;42.724;23.250;2023-02-02T10:06:02;94659.16;;;14.79;45.16
15050;BME280;7622;42.724;23.250;2023-02-02T10:08:34;94649.13;;;14.11;45.90
15050;BME280;7622;42.724;23.250;2023-02-02T10:11:07;94653.25;;;14.85;45.02
15050;BME280;7622;42.724;23.250;2023-02-02T10:13:41;94641.78;;;14.06;45.34
15050;BME280;7622;42.724;23.250;2023-02-02T10:16:13;94632.28;;;14.46;45.36
15050;BME280;7622;42.724;23.250;2023-02-02T10:18:47;94636.72;;;13.97;46.39
15050;BME280;7622;42.724;23.250;2023-02-02T10:21:22;94626.94;;;14.07;45.87
15050;BME280;7622;42.724;23.250;2023-02-02T10:23:54;94611.25;;;14.15;45.88
15050;BME280;7622;42.724;23.250;2023-02-02T10:26:27;94624.53;;;13.89;46.25
15050;BME280;7622;42.724;23.250;2023-02-02T10:29:07;94620.16;;;12.99;47.75
15050;BME280;7622;42.724;23.250;2023-02-02T10:31:42;94614.19;;;13.23;47.26
15050;BME280;7622;42.724;23.250;2023-02-02T10:34:21;94609.69;;;13.41;47.12
15050;BME280;7622;42.724;23.250;2023-02-02T10:37:01;94594.22;;;12.89;47.32
15050;BME280;7622;42.724;23.250;2023-02-02T10:39:45;94596.63;;;11.81;48.80
15050;BME280;7622;42.724;23.250;2023-02-02T10:42:24;94588.28;;;11.16;51.00
15050;BME280;7622;42.724;23.250;2023-02-02T10:44:55;94577.13;;;10.71;51.34
15050;BME280;7622;42.724;23.250;2023-02-02T10:47:25;94577.34;;;10.95;51.71
15050;BME280;7622;42.724;23.250;2023-02-02T10:50:00;94580.25;;;11.45;50.67
15050;BME280;7622;42.724;23.250;2023-02-02T10:52:31;94563.47;;;11.39;51.58
15050;BME280;7622;42.724;23.250;2023-02-02T10:55:05;94551.59;;;11.63;50.12
15050;BME280;7622;42.724;23.250;2023-02-02T10:57:45;94560.31;;;12.39;49.66
15050;BME280;7622;42.724;23.250;2023-02-02T11:00:19;94568.06;;;11.89;48.96
15050;BME280;7622;42.724;23.250;2023-02-02T11:02:46;94555.88;;;11.28;50.56
15050;BME280;7622;42.724;23.250;2023-02-02T11:05:18;94550.69;;;11.98;49.88
15050;BME280;7622;42.724;23.250;2023-02-02T11:08:11;94541.75;;;12.34;48.46
15050;BME280;7622;42.724;23.250;2023-02-02T11:10:40;94550.50;;;12.25;48.69
15050;BME280;7622;42.724;23.250;2023-02-02T11:13:14;94539.81;;;12.36;48.34
15050;BME280;7622;42.724;23.250;2023-02-02T11:15:41;94541.38;;;12.63;48.68
15050;BME280;7622;42.724;23.250;2023-02-02T11:18:26;94535.41;;;13.03;47.08
15050;BME280;7622;42.724;23.250;2023-02-02T11:20:53;94539.91;;;12.69;49.14
15050;BME280;7622;42.724;23.250;2023-02-02T11:23:20;94535.47;;;13.52;47.26
15050;BME280;7622;42.724;23.250;2023-02-02T11:25:59;94527.22;;;12.74;47.66
15050;BME280;7622;42.724;23.250;2023-02-02T11:28:26;94526.44;;;11.89;49.26
15050;BME280;7622;42.724;23.250;2023-02-02T11:30:55;94518.66;;;12.39;49.18
15050;BME280;7622;42.724;23.250;2023-02-02T11:33:27;94517.75;;;12.65;48.76
15050;BME280;7622;42.724;23.250;2023-02-02T11:35:55;94515.47;;;12.61;47.74
15050;BME280;7622;42.724;23.250;2023-02-02T11:38:23;94515.88;;;12.33;49.21
15050;BME280;7622;42.724;23.250;2023-02-02T11:40:55;94515.78;;;12.58;48.46
15050;BME280;7622;42.724;23.250;2023-02-02T11:43:27;94506.78;;;12.37;49.51
15050;BME280;7622;42.724;23.250;2023-02-02T11:45:58;94516.81;;;12.23;49.32
15050;BME280;7622;42.724;23.250;2023-02-02T11:48:28;94498.41;;;12.91;49.19
15050;BME280;7622;42.724;23.250;2023-02-02T11:50:57;94494.00;;;13.65;47.51
15050;BME280;7622;42.724;23.250;2023-02-02T11:53:27;94501.22;;;13.22;46.52
15050;BME280;7622;42.724;23.250;2023-02-02T11:55:56;94500.53;;;13.69;45.03
15050;BME280;7622;42.724;23.250;2023-02-02T11:58:27;94492.06;;;13.43;45.38
15050;BME280;7622;42.724;23.250;2023-02-02T12:00:58;94485.16;;;12.60;46.63
15050;BME280;7622;42.724;23.250;2023-02-02T12:03:31;94496.47;;;12.85;46.83
15050;BME280;7622;42.724;23.250;2023-02-02T12:05:58;94486.34;;;12.90;46.49
15050;BME280;7622;42.724;23.250;2023-02-02T12:08:27;94489.59;;;12.76;46.98
15050;BME280;7622;42.724;23.250;2023-02-02T12:10:58;94490.22;;;12.12;48.09
15050;BME280;7622;42.724;23.250;2023-02-02T12:13:44;94488.97;;;11.82;47.66
15050;BME280;7622;42.724;23.250;2023-02-02T12:16:26;94483.47;;;11.33;48.89
15050;BME280;7622;42.724;23.250;2023-02-02T12:19:06;94478.25;;;10.90;49.39
15050;BME280;7622;42.724;23.250;2023-02-02T12:21:42;94476.97;;;10.58;48.85
15050;BME280;7622;42.724;23.250;2023-02-02T12:24:25;94491.69;;;10.68;49.42
15050;BME280;7622;42.724;23.250;2023-02-02T12:27:02;94495.16;;;10.58;49.18
15050;BME280;7622;42.724;23.250;2023-02-02T12:29:47;94501.66;;;10.27;49.83
15050;BME280;7622;42.724;23.250;2023-02-02T12:32:28;94464.69;;;9.88;50.57
15050;BME280;7622;42.724;23.250;2023-02-02T12:35:25;94496.13;;;10.03;50.44
15050;BME280;7622;42.724;23.250;2023-02-02T12:38:02;94498.28;;;10.17;50.91
15050;BME280;7622;42.724;23.250;2023-02-02T12:40:45;94488.13;;;10.23;51.73
15050;BME280;7622;42.724;23.250;2023-02-02T12:43:24;94494.81;;;9.99;51.92
15050;BME280;7622;42.724;23.250;2023-02-02T12:46:17;94491.22;;;9.72;51.65
15050;BME280;7622;42.724;23.250;2023-02-02T12:49:00;94492.19;;;9.71;51.75
15050;BME280;7622;42.724;23.250;2023-02-02T12:51:45;94480.22;;;9.61;52.42
15050;BME280;7622;42.724;23.250;2023-02-02T12:57:10;94485.66;;;9.67;52.24
15050;BME280;7622;42.724;23.250;2023-02-02T12:59:53;94484.22;;;9.45;53.42
15050;BME280;7622;42.724;23.250;2023-02-02T13:02:32;94478.34;;;9.53;53.38
15050;BME280;7622;42.724;23.250;2023-02-02T13:05:20;94481.31;;;9.58;53.89
15050;BME280;7622;42.724;23.250;2023-02-02T13:07:52;94485.41;;;9.61;53.42
15050;BME280;7622;42.724;23.250;2023-02-02T13:10:25;94481.88;;;9.52;54.20
15050;BME280;7622;42.724;23.250;2023-02-02T13:12:56;94481.31;;;9.58;54.63
15050;BME280;7622;42.724;23.250;2023-02-02T13:15:28;94485.81;;;9.56;54.24
15050;BME280;7622;42.724;23.250;2023-02-02T13:18:01;94476.13;;;9.58;54.18
15050;BME280;7622;42.724;23.250;2023-02-02T13:20:35;94476.56;;;9.54;54.83
15050;BME280;7622;42.724;23.250;2023-02-02T13:23:07;94477.78;;;9.49;52.54